createdAt,value
2023-03-18T00:00:35.304Z,266.03
2023-03-18T00:03:43.232Z,256.71
2023-03-18T00:06:49.917Z,268.46
2023-03-18T00:09:56.817Z,270.43
2023-03-18T00:13:04.683Z,281.64
2023-03-18T00:16:15.340Z,270.40
2023-03-18T00:19:21.386Z,285.54
2023-03-18T00:22:28.618Z,299.56
2023-03-18T00:25:34.560Z,314.53
2023-03-18T00:28:46.647Z,312.11
2023-03-18T00:31:56.438Z,290.39
2023-03-18T00:35:06.358Z,275.11
2023-03-18T00:38:20.963Z,273.66
2023-03-18T00:41:29.404Z,271.60
2023-03-18T00:44:43.600Z,263.77
2023-03-18T00:47:53.952Z,279.52
2023-03-18T00:51:00.854Z,285.11
2023-03-18T00:54:19.932Z,290.13
2023-03-18T00:57:27.613Z,281.63
2023-03-18T01:00:35.848Z,282.26
2023-03-18T01:03:47.921Z,283.76
2023-03-18T01:06:54.635Z,294.56
2023-03-18T01:10:00.521Z,303.03
2023-03-18T01:13:07.249Z,311.99
2023-03-18T01:16:18.080Z,315.12
2023-03-18T01:19:29.449Z,322.07
2023-03-18T01:22:36.246Z,331.39
2023-03-18T01:25:43.577Z,337.41
2023-03-18T01:28:51.053Z,339.70
2023-03-18T01:32:10.918Z,346.53
2023-03-18T01:35:20.507Z,342.32
2023-03-18T01:38:34.845Z,346.13
2023-03-18T01:42:00.121Z,339.56
2023-03-18T01:45:24.928Z,336.93
2023-03-18T01:48:42.751Z,320.77
2023-03-18T01:52:00.633Z,316.14
2023-03-18T01:55:12.876Z,319.41
2023-03-18T01:58:25.714Z,317.55
2023-03-18T02:01:38.361Z,303.86
2023-03-18T02:04:50.949Z,306.59
2023-03-18T02:08:06.941Z,305.07
2023-03-18T02:11:14.439Z,300.21
2023-03-18T02:14:26.878Z,300.33
2023-03-18T02:17:40.386Z,299.67
2023-03-18T02:21:17.045Z,296.06
2023-03-18T02:24:48.360Z,301.47
2023-03-18T02:28:11.689Z,293.80
2023-03-18T02:31:21.244Z,295.88
2023-03-18T02:34:29.638Z,306.54
2023-03-18T02:37:37.405Z,308.69
2023-03-18T02:40:46.173Z,316.09
2023-03-18T02:44:01.065Z,321.13
2023-03-18T02:47:23.803Z,317.17
2023-03-18T02:50:30.812Z,322.66
2023-03-18T02:54:04.201Z,321.99
2023-03-18T02:57:16.199Z,328.88
2023-03-18T03:00:28.471Z,336.21
2023-03-18T03:03:42.594Z,341.77
2023-03-18T03:06:51.687Z,347.89
2023-03-18T03:10:05.250Z,362.52
2023-03-18T03:13:13.710Z,362.29
2023-03-18T03:16:24.969Z,363.03
2023-03-18T03:19:31.122Z,369.00
2023-03-18T03:22:51.575Z,367.77
2023-03-18T03:26:04.076Z,377.96
2023-03-18T03:29:12.811Z,362.54
2023-03-18T03:32:24.899Z,351.67
2023-03-18T03:35:32.645Z,342.19
2023-03-18T03:38:38.839Z,336.56
2023-03-18T03:41:46.473Z,338.64
2023-03-18T03:44:55.140Z,321.39
2023-03-18T03:48:15.697Z,318.82
2023-03-18T03:51:24.126Z,313.49
2023-03-18T03:54:31.703Z,314.94
2023-03-18T03:57:40.008Z,303.91
2023-03-18T04:00:46.770Z,300.11
2023-03-18T04:03:58.168Z,307.10
2023-03-18T04:07:05.383Z,301.33
2023-03-18T04:10:15.179Z,286.42
2023-03-18T04:13:22.775Z,282.31
2023-03-18T04:16:29.541Z,282.52
2023-03-18T04:19:39.953Z,281.14
2023-03-18T04:22:47.070Z,274.16
2023-03-18T04:25:55.044Z,279.95
2023-03-18T04:29:01.202Z,274.29
2023-03-18T04:32:11.123Z,271.43
2023-03-18T04:35:21.712Z,269.48
2023-03-18T04:38:30.789Z,267.72
2023-03-18T04:41:37.692Z,270.39
2023-03-18T04:44:45.928Z,270.37
2023-03-18T04:47:53.079Z,268.58
2023-03-18T04:51:08.395Z,271.29
2023-03-18T04:54:15.396Z,270.47
2023-03-18T04:57:22.621Z,269.91
2023-03-18T05:00:35.445Z,271.52
2023-03-18T05:03:55.465Z,275.48
2023-03-18T05:07:07.384Z,277.55
2023-03-18T05:10:19.089Z,278.33
2023-03-18T05:13:25.489Z,280.47
2023-03-18T05:16:37.474Z,278.57
2023-03-18T05:19:44.259Z,280.05
2023-03-18T05:22:58.459Z,284.50
2023-03-18T05:26:20.857Z,275.21
2023-03-18T05:29:27.935Z,269.69
2023-03-18T05:32:43.653Z,261.88
2023-03-18T05:35:51.148Z,262.63
2023-03-18T05:39:03.503Z,256.33
2023-03-18T05:42:11.817Z,256.27
2023-03-18T05:45:22.557Z,252.62
2023-03-18T05:48:36.414Z,253.14
2023-03-18T05:51:44.998Z,257.05
2023-03-18T05:54:59.501Z,263.73
2023-03-18T05:58:10.385Z,260.98
2023-03-18T06:01:23.009Z,260.18
2023-03-18T06:04:29.507Z,260.22
2023-03-18T06:07:36.896Z,259.59
2023-03-18T06:11:00.761Z,255.32
2023-03-18T06:14:11.990Z,258.37
2023-03-18T06:17:18.317Z,259.83
2023-03-18T06:20:25.403Z,257.01
2023-03-18T06:23:31.936Z,263.33
2023-03-18T06:26:41.726Z,258.10
2023-03-18T06:29:48.206Z,278.11
2023-03-18T06:32:58.096Z,283.36
2023-03-18T06:36:10.832Z,321.17
2023-03-18T06:39:30.189Z,326.22
2023-03-18T06:42:44.855Z,333.79
2023-03-18T06:45:59.750Z,321.69
2023-03-18T06:49:22.679Z,319.21
2023-03-18T06:52:40.696Z,317.94
2023-03-18T06:56:00.364Z,319.64
2023-03-18T06:59:28.885Z,319.58
2023-03-18T07:02:39.439Z,326.22
2023-03-18T07:05:47.914Z,326.72
2023-03-18T07:08:55.340Z,327.75
2023-03-18T07:12:03.574Z,343.76
2023-03-18T07:15:14.945Z,343.29
2023-03-18T07:18:21.906Z,340.53
2023-03-18T07:21:28.204Z,330.47
2023-03-18T07:24:36.175Z,327.19
2023-03-18T07:27:42.492Z,315.31
2023-03-18T07:30:54.052Z,314.07
2023-03-18T07:34:00.804Z,307.91
2023-03-18T07:37:17.830Z,305.61
2023-03-18T07:40:26.421Z,305.72
2023-03-18T07:43:33.081Z,305.10
2023-03-18T07:46:41.693Z,299.39
2023-03-18T07:49:48.646Z,301.78
2023-03-18T07:52:55.190Z,292.67
2023-03-18T07:56:08.403Z,287.90
2023-03-18T07:59:16.107Z,277.89
2023-03-18T08:02:28.418Z,265.82
2023-03-18T08:05:34.981Z,269.26
2023-03-18T08:08:44.891Z,263.53
2023-03-18T08:11:51.063Z,266.96
2023-03-18T08:14:58.217Z,268.08
2023-03-18T08:18:27.398Z,276.16
2023-03-18T08:21:50.890Z,259.68
2023-03-18T08:24:58.508Z,252.78
2023-03-18T08:28:12.352Z,249.92
2023-03-18T08:31:18.493Z,243.02
2023-03-18T08:34:28.100Z,247.15
2023-03-18T08:37:34.083Z,249.53
2023-03-18T08:40:48.524Z,248.83
2023-03-18T08:43:57.519Z,235.79
2023-03-18T08:47:04.441Z,245.50
2023-03-18T08:50:17.362Z,225.25
2023-03-18T08:53:24.520Z,189.14
2023-03-18T08:56:32.769Z,195.20
2023-03-18T08:59:44.802Z,192.94
2023-03-18T09:02:51.193Z,189.41
2023-03-18T09:06:00.794Z,157.71
2023-03-18T09:09:09.854Z,151.76
2023-03-18T09:12:19.583Z,139.40
2023-03-18T09:15:25.775Z,141.65
2023-03-18T09:18:32.867Z,135.75
2023-03-18T09:21:41.689Z,122.51
2023-03-18T09:24:48.569Z,163.60
2023-03-18T09:27:55.344Z,157.30
2023-03-18T09:31:02.812Z,147.57
2023-03-18T09:34:08.709Z,144.53
2023-03-18T09:37:25.688Z,166.83
2023-03-18T09:40:44.124Z,160.35
2023-03-18T09:44:14.974Z,138.67
2023-03-18T09:47:54.349Z,134.87
2023-03-18T09:51:20.030Z,130.75
2023-03-18T09:54:41.415Z,120.77
2023-03-18T09:57:54.588Z,114.16
2023-03-18T10:01:07.461Z,105.75
2023-03-18T10:04:23.790Z,102.95
2023-03-18T10:07:40.409Z,97.30
2023-03-18T10:10:52.610Z,83.41
2023-03-18T10:14:21.360Z,71.86
2023-03-18T10:17:35.838Z,75.42
2023-03-18T10:21:08.221Z,81.42
2023-03-18T10:24:38.277Z,80.41
2023-03-18T10:28:06.937Z,77.48
2023-03-18T10:31:29.939Z,75.62
2023-03-18T10:34:49.319Z,88.78
2023-03-18T10:38:06.202Z,80.04
2023-03-18T10:41:30.375Z,86.08
2023-03-18T10:44:45.802Z,81.81
2023-03-18T10:48:06.322Z,74.26
2023-03-18T10:51:24.874Z,79.32
2023-03-18T10:54:41.147Z,80.78
2023-03-18T10:57:48.068Z,84.61
2023-03-18T11:00:56.547Z,75.00
2023-03-18T11:04:11.466Z,78.35
2023-03-18T11:07:26.192Z,79.49
2023-03-18T11:10:40.053Z,95.17
2023-03-18T11:13:50.876Z,96.00
2023-03-18T11:17:06.492Z,91.00
2023-03-18T11:20:25.637Z,91.08
2023-03-18T11:23:56.275Z,96.03
2023-03-18T11:27:02.557Z,102.37
2023-03-18T11:30:33.667Z,95.91
2023-03-18T11:33:42.797Z,96.36
2023-03-18T11:36:59.222Z,105.01
2023-03-18T11:40:26.570Z,104.69
2023-03-18T11:43:33.471Z,107.90
2023-03-18T11:46:48.736Z,116.65
2023-03-18T11:49:59.661Z,84.70
2023-03-18T11:53:26.472Z,90.33
2023-03-18T11:56:43.700Z,94.24
2023-03-18T12:00:17.829Z,89.22
2023-03-18T12:04:08.097Z,84.74
2023-03-18T12:07:52.477Z,71.75
2023-03-18T12:11:14.839Z,72.64
2023-03-18T12:14:36.527Z,67.15
2023-03-18T12:18:04.520Z,63.87
2023-03-18T12:21:45.727Z,65.22
2023-03-18T12:25:30.922Z,65.23
2023-03-18T12:28:56.512Z,95.11
2023-03-18T12:32:26.740Z,75.82
2023-03-18T12:35:53.664Z,77.12
2023-03-18T12:39:31.219Z,78.24
2023-03-18T12:43:03.945Z,77.99
2023-03-18T12:46:29.475Z,83.08
2023-03-18T12:49:41.952Z,83.03
2023-03-18T12:52:57.959Z,94.06
2023-03-18T12:56:27.839Z,85.38
2023-03-18T12:59:53.957Z,67.46
2023-03-18T13:03:09.012Z,67.47
2023-03-18T13:06:26.826Z,65.51
2023-03-18T13:09:43.918Z,63.94
2023-03-18T13:12:56.218Z,65.06
2023-03-18T13:16:09.290Z,63.29
2023-03-18T13:19:16.127Z,62.57
2023-03-18T13:23:00.687Z,66.16
2023-03-18T13:26:24.529Z,64.53
2023-03-18T13:29:46.197Z,66.43
2023-03-18T13:33:37.494Z,68.48
2023-03-18T13:37:30.896Z,72.33
2023-03-18T13:41:22.627Z,74.97
2023-03-18T13:44:47.736Z,81.88
2023-03-18T13:48:08.842Z,71.95
2023-03-18T13:51:43.679Z,72.20
2023-03-18T13:54:51.826Z,68.96
2023-03-18T13:58:11.860Z,71.02
2023-03-18T14:01:36.763Z,70.01
2023-03-18T14:04:53.738Z,73.59
2023-03-18T14:08:45.118Z,75.12
2023-03-18T14:11:54.631Z,75.83
2023-03-18T14:15:08.265Z,70.58
2023-03-18T14:18:28.865Z,67.02
2023-03-18T14:21:52.621Z,70.76
2023-03-18T14:25:23.819Z,66.46
2023-03-18T14:28:31.973Z,72.95
2023-03-18T14:31:59.454Z,75.20
2023-03-18T14:35:30.082Z,77.35
2023-03-18T14:38:51.956Z,83.54
2023-03-18T14:42:06.180Z,86.03
2023-03-18T14:45:24.733Z,85.26
2023-03-18T14:48:35.585Z,74.60
2023-03-18T14:51:41.940Z,66.64
2023-03-18T14:54:58.077Z,64.31
2023-03-18T14:58:07.383Z,56.62
2023-03-18T15:01:26.056Z,65.91
2023-03-18T15:04:32.206Z,57.47
2023-03-18T15:07:47.740Z,47.78
2023-03-18T15:11:05.817Z,47.82
2023-03-18T15:14:26.271Z,52.77
2023-03-18T15:17:32.492Z,54.01
2023-03-18T15:20:40.596Z,56.89
2023-03-18T15:23:54.694Z,61.20
2023-03-18T15:27:14.680Z,66.82
2023-03-18T15:30:36.369Z,64.98
2023-03-18T15:33:44.176Z,59.26
2023-03-18T15:36:58.214Z,62.63
2023-03-18T15:40:31.273Z,63.12
2023-03-18T15:43:46.452Z,61.42
2023-03-18T15:46:54.786Z,62.10
2023-03-18T15:50:03.100Z,94.44
2023-03-18T15:53:25.101Z,112.26
2023-03-18T15:56:34.541Z,131.90
2023-03-18T15:59:44.269Z,135.68
2023-03-18T16:02:50.771Z,169.81
2023-03-18T16:06:01.223Z,159.85
2023-03-18T16:09:18.807Z,145.57
2023-03-18T16:12:29.991Z,169.45
2023-03-18T16:15:39.486Z,154.58
2023-03-18T16:18:46.928Z,140.96
2023-03-18T16:21:52.871Z,125.87
2023-03-18T16:24:59.945Z,132.81
2023-03-18T16:28:25.975Z,236.48
2023-03-18T16:31:42.336Z,278.89
2023-03-18T16:34:48.775Z,446.64
2023-03-18T16:37:57.090Z,506.44
2023-03-18T16:41:05.316Z,438.82
2023-03-18T16:44:19.470Z,430.75
2023-03-18T16:47:32.143Z,407.37
2023-03-18T16:50:45.064Z,317.86
2023-03-18T16:53:56.407Z,372.33
2023-03-18T16:57:08.373Z,455.92
2023-03-18T17:00:22.936Z,571.27
2023-03-18T17:03:35.305Z,604.29
2023-03-18T17:06:41.261Z,650.54
2023-03-18T17:09:48.148Z,575.44
2023-03-18T17:13:00.558Z,367.70
2023-03-18T17:16:08.228Z,317.77
2023-03-18T17:19:19.128Z,319.65
2023-03-18T17:22:29.689Z,349.10
2023-03-18T17:25:36.399Z,305.81
2023-03-18T17:28:49.531Z,268.19
2023-03-18T17:31:57.607Z,256.54
2023-03-18T17:35:17.866Z,280.82
2023-03-18T17:38:24.655Z,280.21
2023-03-18T17:41:32.572Z,309.48
2023-03-18T17:44:39.242Z,353.92
2023-03-18T17:47:46.102Z,394.08
2023-03-18T17:50:58.322Z,452.06
2023-03-18T17:54:05.946Z,471.23
2023-03-18T17:57:18.098Z,532.69
2023-03-18T18:00:29.311Z,633.77
2023-03-18T18:03:38.974Z,624.90
2023-03-18T18:06:50.149Z,551.82
2023-03-18T18:09:57.292Z,545.51
2023-03-18T18:13:04.946Z,891.61
2023-03-18T18:16:11.212Z,814.23
2023-03-18T18:19:18.872Z,702.86
2023-03-18T18:22:27.863Z,600.50
2023-03-18T18:25:35.956Z,493.21
2023-03-18T18:28:45.033Z,463.51
2023-03-18T18:31:52.471Z,487.73
2023-03-18T18:34:58.488Z,509.92
2023-03-18T18:38:08.208Z,526.58
2023-03-18T18:41:14.551Z,617.34
2023-03-18T18:44:22.007Z,544.78
2023-03-18T18:47:28.215Z,474.69
2023-03-18T18:50:35.804Z,459.61
2023-03-18T18:53:44.452Z,523.92
2023-03-18T18:56:51.434Z,620.75
2023-03-18T18:59:58.302Z,624.10
2023-03-18T19:03:05.996Z,703.67
2023-03-18T19:06:29.522Z,781.57
2023-03-18T19:09:39.395Z,835.37
2023-03-18T19:12:46.495Z,792.78
2023-03-18T19:15:58.395Z,766.90
2023-03-18T19:19:06.303Z,896.02
2023-03-18T19:22:18.345Z,970.80
2023-03-18T19:25:28.818Z,967.72
2023-03-18T19:28:59.724Z,895.77
2023-03-18T19:32:09.425Z,790.82
2023-03-18T19:35:17.358Z,735.00
2023-03-18T19:38:25.148Z,686.45
2023-03-18T19:41:34.566Z,776.43
2023-03-18T19:44:42.671Z,770.30
2023-03-18T19:47:50.068Z,695.68
2023-03-18T19:50:57.884Z,680.01
2023-03-18T19:54:31.725Z,752.44
2023-03-18T19:57:40.350Z,621.99
2023-03-18T20:00:47.811Z,607.14
2023-03-18T20:03:59.161Z,577.02
2023-03-18T20:07:08.484Z,478.14
2023-03-18T20:10:16.912Z,408.33
2023-03-18T20:13:27.242Z,375.56
2023-03-18T20:16:36.505Z,298.78
2023-03-18T20:19:43.314Z,280.79
2023-03-18T20:22:55.934Z,282.92
2023-03-18T20:26:02.994Z,282.81
2023-03-18T20:29:21.132Z,296.72
2023-03-18T20:32:28.414Z,339.52
2023-03-18T20:35:38.411Z,312.30
2023-03-18T20:38:48.344Z,336.04
2023-03-18T20:41:54.634Z,338.73
2023-03-18T20:45:04.321Z,337.29
2023-03-18T20:48:10.780Z,330.31
2023-03-18T20:51:25.406Z,348.83
2023-03-18T20:54:37.562Z,344.68
2023-03-18T20:57:44.292Z,357.31
2023-03-18T21:00:54.252Z,354.51
2023-03-18T21:04:02.570Z,359.39
2023-03-18T21:07:08.566Z,319.74
2023-03-18T21:10:21.416Z,292.54
2023-03-18T21:13:34.014Z,268.99
2023-03-18T21:16:43.584Z,256.56
2023-03-18T21:19:50.484Z,268.73
2023-03-18T21:22:58.035Z,320.33
2023-03-18T21:26:04.426Z,321.18
2023-03-18T21:29:11.076Z,319.58
2023-03-18T21:32:27.331Z,316.86
2023-03-18T21:35:34.611Z,340.40
2023-03-18T21:38:40.708Z,393.68
2023-03-18T21:41:47.550Z,378.72
2023-03-18T21:44:54.768Z,307.16
2023-03-18T21:48:04.164Z,256.01
2023-03-18T21:51:38.182Z,225.43
2023-03-18T21:54:45.890Z,205.18
2023-03-18T21:57:52.853Z,221.78
2023-03-18T22:01:02.710Z,241.77
2023-03-18T22:04:12.128Z,254.45
2023-03-18T22:07:21.912Z,248.63
2023-03-18T22:10:28.941Z,259.27
2023-03-18T22:13:36.235Z,267.59
2023-03-18T22:16:42.088Z,263.62
2023-03-18T22:19:52.308Z,264.13
2023-03-18T22:22:58.442Z,286.35
2023-03-18T22:26:05.140Z,285.96
2023-03-18T22:29:10.921Z,281.10
2023-03-18T22:32:40.677Z,282.56
2023-03-18T22:35:49.663Z,286.64
2023-03-18T22:38:56.536Z,290.45
2023-03-18T22:42:02.665Z,285.06
2023-03-18T22:45:22.810Z,309.12
2023-03-18T22:48:29.737Z,342.00
2023-03-18T22:51:44.987Z,362.02
2023-03-18T22:54:56.086Z,360.68
2023-03-18T22:58:02.837Z,371.96
2023-03-18T23:01:09.923Z,387.07
2023-03-18T23:04:19.708Z,404.15
2023-03-18T23:07:34.456Z,396.33
2023-03-18T23:10:42.348Z,386.84
2023-03-18T23:13:53.433Z,386.22
2023-03-18T23:17:00.137Z,384.65
2023-03-18T23:20:06.278Z,377.25
2023-03-18T23:23:16.442Z,360.02
2023-03-18T23:26:22.758Z,335.15
2023-03-18T23:29:29.483Z,302.80
2023-03-18T23:32:35.965Z,279.26
2023-03-18T23:35:44.232Z,257.63
2023-03-18T23:38:52.817Z,249.35
2023-03-18T23:41:59.826Z,242.18
2023-03-18T23:45:06.951Z,251.55
2023-03-18T23:48:13.685Z,264.71
2023-03-18T23:51:19.525Z,279.21
2023-03-18T23:54:29.212Z,271.21
2023-03-18T23:57:35.104Z,269.23
